sensor_id;sensor_type;location;lat;lon;timestamp;P1;durP1;ratioP1;P2;durP2;ratioP2
68910;SDS011;55953;51.650;-0.522;2023-04-26T00:00:44;10.70;;;4.60;;
68910;SDS011;55953;51.650;-0.522;2023-04-26T00:03:13;10.70;;;4.60;;
68910;SDS011;55953;51.650;-0.522;2023-04-26T00:05:41;8.70;;;4.60;;
68910;SDS011;55953;51.650;-0.522;2023-04-26T00:08:10;10.30;;;5.20;;
68910;SDS011;55953;51.650;-0.522;2023-04-26T00:10:37;11.20;;;4.80;;
68910;SDS011;55953;51.650;-0.522;2023-04-26T00:13:07;9.20;;;5.20;;
68910;SDS011;55953;51.650;-0.522;2023-04-26T00:15:35;10.50;;;5.00;;
68910;SDS011;55953;51.650;-0.522;2023-04-26T00:18:03;11.00;;;4.80;;
68910;SDS011;55953;51.650;-0.522;2023-04-26T00:20:32;12.80;;;5.00;;
68910;SDS011;55953;51.650;-0.522;2023-04-26T00:23:00;10.80;;;5.00;;
68910;SDS011;55953;51.650;-0.522;2023-04-26T00:25:28;13.30;;;5.10;;
68910;SDS011;55953;51.650;-0.522;2023-04-26T00:27:55;10.70;;;5.00;;
68910;SDS011;55953;51.650;-0.522;2023-04-26T00:30:23;9.70;;;4.90;;
68910;SDS011;55953;51.650;-0.522;2023-04-26T00:32:51;11.50;;;4.60;;
68910;SDS011;55953;51.650;-0.522;2023-04-26T00:35:20;10.70;;;4.90;;
68910;SDS011;55953;51.650;-0.522;2023-04-26T00:37:48;9.90;;;4.70;;
68910;SDS011;55953;51.650;-0.522;2023-04-26T00:40:15;9.10;;;4.40;;
68910;SDS011;55953;51.650;-0.522;2023-04-26T00:42:44;12.70;;;4.40;;
68910;SDS011;55953;51.650;-0.522;2023-04-26T00:45:12;8.50;;;4.30;;
68910;SDS011;55953;51.650;-0.522;2023-04-26T00:47:40;10.80;;;5.20;;
68910;SDS011;55953;51.650;-0.522;2023-04-26T00:50:08;10.10;;;5.00;;
68910;SDS011;55953;51.650;-0.522;2023-04-26T00:52:37;11.80;;;4.90;;
68910;SDS011;55953;51.650;-0.522;2023-04-26T00:55:07;11.50;;;5.00;;
68910;SDS011;55953;51.650;-0.522;2023-04-26T00:57:37;11.20;;;5.20;;
68910;SDS011;55953;51.650;-0.522;2023-04-26T01:00:06;9.40;;;4.90;;
68910;SDS011;55953;51.650;-0.522;2023-04-26T01:02:35;12.60;;;4.50;;
68910;SDS011;55953;51.650;-0.522;2023-04-26T01:05:06;11.00;;;5.30;;
68910;SDS011;55953;51.650;-0.522;2023-04-26T01:07:36;9.20;;;4.60;;
68910;SDS011;55953;51.650;-0.522;2023-04-26T01:10:08;8.90;;;4.40;;
68910;SDS011;55953;51.650;-0.522;2023-04-26T01:12:37;9.90;;;4.30;;
68910;SDS011;55953;51.650;-0.522;2023-04-26T01:15:06;9.50;;;4.60;;
68910;SDS011;55953;51.650;-0.522;2023-04-26T01:17:34;9.70;;;4.10;;
68910;SDS011;55953;51.650;-0.522;2023-04-26T01:20:05;8.30;;;4.80;;
68910;SDS011;55953;51.650;-0.522;2023-04-26T01:22:36;8.70;;;4.20;;
68910;SDS011;55953;51.650;-0.522;2023-04-26T01:25:04;9.20;;;4.50;;
68910;SDS011;55953;51.650;-0.522;2023-04-26T01:27:38;7.60;;;4.20;;
68910;SDS011;55953;51.650;-0.522;2023-04-26T01:30:06;7.40;;;4.10;;
68910;SDS011;55953;51.650;-0.522;2023-04-26T01:32:36;9.50;;;3.90;;
68910;SDS011;55953;51.650;-0.522;2023-04-26T01:35:04;12.20;;;4.50;;
68910;SDS011;55953;51.650;-0.522;2023-04-26T01:37:32;9.10;;;4.50;;
68910;SDS011;55953;51.650;-0.522;2023-04-26T01:40:00;8.60;;;4.20;;
68910;SDS011;55953;51.650;-0.522;2023-04-26T01:42:28;10.80;;;4.40;;
68910;SDS011;55953;51.650;-0.522;2023-04-26T01:44:59;8.90;;;4.10;;
68910;SDS011;55953;51.650;-0.522;2023-04-26T01:47:47;6.60;;;3.90;;
68910;SDS011;55953;51.650;-0.522;2023-04-26T01:50:15;9.60;;;4.10;;
68910;SDS011;55953;51.650;-0.522;2023-04-26T01:52:43;8.20;;;4.40;;
68910;SDS011;55953;51.650;-0.522;2023-04-26T01:55:11;8.60;;;4.30;;
68910;SDS011;55953;51.650;-0.522;2023-04-26T01:57:39;11.10;;;4.60;;
68910;SDS011;55953;51.650;-0.522;2023-04-26T02:00:08;11.80;;;4.70;;
68910;SDS011;55953;51.650;-0.522;2023-04-26T02:02:42;7.30;;;3.60;;
68910;SDS011;55953;51.650;-0.522;2023-04-26T02:05:10;10.20;;;3.60;;
68910;SDS011;55953;51.650;-0.522;2023-04-26T02:07:39;12.00;;;4.50;;
68910;SDS011;55953;51.650;-0.522;2023-04-26T02:10:07;8.40;;;3.30;;
68910;SDS011;55953;51.650;-0.522;2023-04-26T02:12:35;10.80;;;3.70;;
68910;SDS011;55953;51.650;-0.522;2023-04-26T02:15:04;9.90;;;3.90;;
68910;SDS011;55953;51.650;-0.522;2023-04-26T02:17:34;8.50;;;3.80;;
68910;SDS011;55953;51.650;-0.522;2023-04-26T02:20:04;9.60;;;3.70;;
68910;SDS011;55953;51.650;-0.522;2023-04-26T02:22:33;6.40;;;3.20;;
68910;SDS011;55953;51.650;-0.522;2023-04-26T02:25:01;7.10;;;3.40;;
68910;SDS011;55953;51.650;-0.522;2023-04-26T02:27:29;9.10;;;3.70;;
68910;SDS011;55953;51.650;-0.522;2023-04-26T02:29:58;9.10;;;3.60;;
68910;SDS011;55953;51.650;-0.522;2023-04-26T02:32:26;8.50;;;3.90;;
68910;SDS011;55953;51.650;-0.522;2023-04-26T02:34:54;10.90;;;4.00;;
68910;SDS011;55953;51.650;-0.522;2023-04-26T02:37:22;10.70;;;4.30;;
68910;SDS011;55953;51.650;-0.522;2023-04-26T02:39:50;9.30;;;3.90;;
68910;SDS011;55953;51.650;-0.522;2023-04-26T02:42:18;11.40;;;4.40;;
68910;SDS011;55953;51.650;-0.522;2023-04-26T02:44:46;9.30;;;3.70;;
68910;SDS011;55953;51.650;-0.522;2023-04-26T02:47:14;7.30;;;3.60;;
68910;SDS011;55953;51.650;-0.522;2023-04-26T02:49:43;11.00;;;3.90;;
68910;SDS011;55953;51.650;-0.522;2023-04-26T02:52:11;8.20;;;3.80;;
68910;SDS011;55953;51.650;-0.522;2023-04-26T02:54:39;11.20;;;3.50;;
68910;SDS011;55953;51.650;-0.522;2023-04-26T02:57:06;8.00;;;3.50;;
68910;SDS011;55953;51.650;-0.522;2023-04-26T02:59:34;7.30;;;3.10;;
68910;SDS011;55953;51.650;-0.522;2023-04-26T03:02:02;7.00;;;3.60;;
68910;SDS011;55953;51.650;-0.522;2023-04-26T03:04:33;7.40;;;3.70;;
68910;SDS011;55953;51.650;-0.522;2023-04-26T03:07:03;10.10;;;3.80;;
68910;SDS011;55953;51.650;-0.522;2023-04-26T03:09:31;8.80;;;3.80;;
68910;SDS011;55953;51.650;-0.522;2023-04-26T03:12:00;8.90;;;3.60;;
68910;SDS011;55953;51.650;-0.522;2023-04-26T03:14:30;10.50;;;3.90;;
68910;SDS011;55953;51.650;-0.522;2023-04-26T03:16:58;8.30;;;3.60;;
68910;SDS011;55953;51.650;-0.522;2023-04-26T03:19:27;14.00;;;4.10;;
68910;SDS011;55953;51.650;-0.522;2023-04-26T03:21:55;9.30;;;3.50;;
68910;SDS011;55953;51.650;-0.522;2023-04-26T03:24:23;9.10;;;4.20;;
68910;SDS011;55953;51.650;-0.522;2023-04-26T03:26:51;11.50;;;4.20;;
68910;SDS011;55953;51.650;-0.522;2023-04-26T03:29:19;6.00;;;3.50;;
68910;SDS011;55953;51.650;-0.522;2023-04-26T03:31:47;7.80;;;3.80;;
68910;SDS011;55953;51.650;-0.522;2023-04-26T03:34:14;7.00;;;3.70;;
68910;SDS011;55953;51.650;-0.522;2023-04-26T03:36:42;10.30;;;3.90;;
68910;SDS011;55953;51.650;-0.522;2023-04-26T03:39:10;9.30;;;4.00;;
68910;SDS011;55953;51.650;-0.522;2023-04-26T03:41:38;11.70;;;4.10;;
68910;SDS011;55953;51.650;-0.522;2023-04-26T03:44:07;8.80;;;4.00;;
68910;SDS011;55953;51.650;-0.522;2023-04-26T03:46:35;7.50;;;3.70;;
68910;SDS011;55953;51.650;-0.522;2023-04-26T03:49:03;8.20;;;3.90;;
68910;SDS011;55953;51.650;-0.522;2023-04-26T03:51:31;7.50;;;3.40;;
68910;SDS011;55953;51.650;-0.522;2023-04-26T03:53:59;10.30;;;4.50;;
68910;SDS011;55953;51.650;-0.522;2023-04-26T03:56:27;7.50;;;3.50;;
68910;SDS011;55953;51.650;-0.522;2023-04-26T03:58:56;8.50;;;3.70;;
68910;SDS011;55953;51.650;-0.522;2023-04-26T04:01:24;9.40;;;3.70;;
68910;SDS011;55953;51.650;-0.522;2023-04-26T04:03:53;8.80;;;3.80;;
68910;SDS011;55953;51.650;-0.522;2023-04-26T04:06:21;7.20;;;3.70;;
68910;SDS011;55953;51.650;-0.522;2023-04-26T04:08:49;8.50;;;3.80;;
68910;SDS011;55953;51.650;-0.522;2023-04-26T04:11:17;8.90;;;3.80;;
68910;SDS011;55953;51.650;-0.522;2023-04-26T04:13:45;9.90;;;4.20;;
68910;SDS011;55953;51.650;-0.522;2023-04-26T04:16:13;9.10;;;3.80;;
68910;SDS011;55953;51.650;-0.522;2023-04-26T04:18:42;8.40;;;3.60;;
68910;SDS011;55953;51.650;-0.522;2023-04-26T04:21:10;8.30;;;4.20;;
68910;SDS011;55953;51.650;-0.522;2023-04-26T04:23:38;7.20;;;3.60;;
68910;SDS011;55953;51.650;-0.522;2023-04-26T04:26:09;10.80;;;4.40;;
68910;SDS011;55953;51.650;-0.522;2023-04-26T04:28:39;9.00;;;4.00;;
68910;SDS011;55953;51.650;-0.522;2023-04-26T04:31:08;7.80;;;3.60;;
68910;SDS011;55953;51.650;-0.522;2023-04-26T04:33:36;7.60;;;4.10;;
68910;SDS011;55953;51.650;-0.522;2023-04-26T04:36:06;9.10;;;4.20;;
68910;SDS011;55953;51.650;-0.522;2023-04-26T04:38:35;8.30;;;3.50;;
68910;SDS011;55953;51.650;-0.522;2023-04-26T04:41:04;8.90;;;4.10;;
68910;SDS011;55953;51.650;-0.522;2023-04-26T04:43:33;8.20;;;3.60;;
68910;SDS011;55953;51.650;-0.522;2023-04-26T04:46:01;7.70;;;4.00;;
68910;SDS011;55953;51.650;-0.522;2023-04-26T04:48:29;8.00;;;4.40;;
68910;SDS011;55953;51.650;-0.522;2023-04-26T04:50:57;8.00;;;3.60;;
68910;SDS011;55953;51.650;-0.522;2023-04-26T04:53:25;8.20;;;3.80;;
68910;SDS011;55953;51.650;-0.522;2023-04-26T04:55:53;7.30;;;3.40;;
68910;SDS011;55953;51.650;-0.522;2023-04-26T04:58:21;9.40;;;3.90;;
68910;SDS011;55953;51.650;-0.522;2023-04-26T05:00:50;7.20;;;3.50;;
68910;SDS011;55953;51.650;-0.522;2023-04-26T05:03:23;9.50;;;4.00;;
68910;SDS011;55953;51.650;-0.522;2023-04-26T05:05:51;9.40;;;4.00;;
68910;SDS011;55953;51.650;-0.522;2023-04-26T05:08:19;9.20;;;4.10;;
68910;SDS011;55953;51.650;-0.522;2023-04-26T05:10:48;6.40;;;3.90;;
68910;SDS011;55953;51.650;-0.522;2023-04-26T05:13:16;10.00;;;3.90;;
68910;SDS011;55953;51.650;-0.522;2023-04-26T05:15:44;7.60;;;4.10;;
68910;SDS011;55953;51.650;-0.522;2023-04-26T05:18:12;8.90;;;4.30;;
68910;SDS011;55953;51.650;-0.522;2023-04-26T05:20:41;8.90;;;4.00;;
68910;SDS011;55953;51.650;-0.522;2023-04-26T05:23:09;7.80;;;3.90;;
68910;SDS011;55953;51.650;-0.522;2023-04-26T05:25:37;7.90;;;4.20;;
68910;SDS011;55953;51.650;-0.522;2023-04-26T05:28:25;9.20;;;4.00;;
68910;SDS011;55953;51.650;-0.522;2023-04-26T05:31:10;8.70;;;3.90;;
68910;SDS011;55953;51.650;-0.522;2023-04-26T05:33:56;10.20;;;3.70;;
68910;SDS011;55953;51.650;-0.522;2023-04-26T05:36:30;10.00;;;4.00;;
68910;SDS011;55953;51.650;-0.522;2023-04-26T05:38:59;8.30;;;3.80;;
68910;SDS011;55953;51.650;-0.522;2023-04-26T05:41:27;5.40;;;3.30;;
68910;SDS011;55953;51.650;-0.522;2023-04-26T05:43:55;10.50;;;4.60;;
68910;SDS011;55953;51.650;-0.522;2023-04-26T05:46:23;8.40;;;4.20;;
68910;SDS011;55953;51.650;-0.522;2023-04-26T05:48:51;12.40;;;4.20;;
68910;SDS011;55953;51.650;-0.522;2023-04-26T05:51:19;10.40;;;3.90;;
68910;SDS011;55953;51.650;-0.522;2023-04-26T05:53:48;9.30;;;3.90;;
68910;SDS011;55953;51.650;-0.522;2023-04-26T05:56:16;9.40;;;3.90;;
68910;SDS011;55953;51.650;-0.522;2023-04-26T05:58:44;9.10;;;3.80;;
68910;SDS011;55953;51.650;-0.522;2023-04-26T06:01:13;9.40;;;3.90;;
68910;SDS011;55953;51.650;-0.522;2023-04-26T06:03:42;9.40;;;4.00;;
68910;SDS011;55953;51.650;-0.522;2023-04-26T06:06:12;9.60;;;4.00;;
68910;SDS011;55953;51.650;-0.522;2023-04-26T06:08:41;9.70;;;3.50;;
68910;SDS011;55953;51.650;-0.522;2023-04-26T06:11:10;9.80;;;4.00;;
68910;SDS011;55953;51.650;-0.522;2023-04-26T06:13:39;8.90;;;3.70;;
68910;SDS011;55953;51.650;-0.522;2023-04-26T06:16:07;8.30;;;3.30;;
68910;SDS011;55953;51.650;-0.522;2023-04-26T06:18:35;9.40;;;3.60;;
68910;SDS011;55953;51.650;-0.522;2023-04-26T06:21:04;6.50;;;3.20;;
68910;SDS011;55953;51.650;-0.522;2023-04-26T06:23:32;7.00;;;3.40;;
68910;SDS011;55953;51.650;-0.522;2023-04-26T06:26:00;9.20;;;3.10;;
68910;SDS011;55953;51.650;-0.522;2023-04-26T06:28:28;7.50;;;2.90;;
68910;SDS011;55953;51.650;-0.522;2023-04-26T06:30:56;7.40;;;3.00;;
68910;SDS011;55953;51.650;-0.522;2023-04-26T06:33:24;7.60;;;2.90;;
68910;SDS011;55953;51.650;-0.522;2023-04-26T06:35:52;8.10;;;2.60;;
68910;SDS011;55953;51.650;-0.522;2023-04-26T06:38:20;6.50;;;2.40;;
68910;SDS011;55953;51.650;-0.522;2023-04-26T06:40:50;6.90;;;2.50;;
68910;SDS011;55953;51.650;-0.522;2023-04-26T06:43:18;9.30;;;2.50;;
68910;SDS011;55953;51.650;-0.522;2023-04-26T06:45:58;5.90;;;2.50;;
68910;SDS011;55953;51.650;-0.522;2023-04-26T06:48:26;8.30;;;2.20;;
68910;SDS011;55953;51.650;-0.522;2023-04-26T06:50:54;7.10;;;2.50;;
68910;SDS011;55953;51.650;-0.522;2023-04-26T06:53:22;6.60;;;2.70;;
68910;SDS011;55953;51.650;-0.522;2023-04-26T06:55:50;6.90;;;2.50;;
68910;SDS011;55953;51.650;-0.522;2023-04-26T06:58:19;5.70;;;2.60;;
68910;SDS011;55953;51.650;-0.522;2023-04-26T07:00:47;7.20;;;2.40;;
68910;SDS011;55953;51.650;-0.522;2023-04-26T07:03:15;7.00;;;2.20;;
68910;SDS011;55953;51.650;-0.522;2023-04-26T07:05:43;8.40;;;2.60;;
68910;SDS011;55953;51.650;-0.522;2023-04-26T07:08:11;6.90;;;2.30;;
68910;SDS011;55953;51.650;-0.522;2023-04-26T07:10:40;8.60;;;2.70;;
68910;SDS011;55953;51.650;-0.522;2023-04-26T07:13:08;6.10;;;2.10;;
68910;SDS011;55953;51.650;-0.522;2023-04-26T07:15:36;5.60;;;2.30;;
68910;SDS011;55953;51.650;-0.522;2023-04-26T07:18:04;5.70;;;2.20;;
68910;SDS011;55953;51.650;-0.522;2023-04-26T07:20:32;5.60;;;2.20;;
68910;SDS011;55953;51.650;-0.522;2023-04-26T07:22:59;6.40;;;2.10;;
68910;SDS011;55953;51.650;-0.522;2023-04-26T07:25:27;6.70;;;1.90;;
68910;SDS011;55953;51.650;-0.522;2023-04-26T07:27:55;5.10;;;1.80;;
68910;SDS011;55953;51.650;-0.522;2023-04-26T07:30:24;4.10;;;2.00;;
68910;SDS011;55953;51.650;-0.522;2023-04-26T07:32:52;9.00;;;2.20;;
68910;SDS011;55953;51.650;-0.522;2023-04-26T07:35:20;5.70;;;2.00;;
68910;SDS011;55953;51.650;-0.522;2023-04-26T07:37:48;7.50;;;2.50;;
68910;SDS011;55953;51.650;-0.522;2023-04-26T07:40:16;8.40;;;2.30;;
68910;SDS011;55953;51.650;-0.522;2023-04-26T07:42:45;6.90;;;2.10;;
68910;SDS011;55953;51.650;-0.522;2023-04-26T07:45:13;6.10;;;1.90;;
68910;SDS011;55953;51.650;-0.522;2023-04-26T07:47:41;9.40;;;1.90;;
68910;SDS011;55953;51.650;-0.522;2023-04-26T07:50:09;4.80;;;2.10;;
68910;SDS011;55953;51.650;-0.522;2023-04-26T07:52:37;4.60;;;1.80;;
68910;SDS011;55953;51.650;-0.522;2023-04-26T07:55:05;3.80;;;1.70;;
68910;SDS011;55953;51.650;-0.522;2023-04-26T07:57:34;7.10;;;1.90;;
68910;SDS011;55953;51.650;-0.522;2023-04-26T08:00:06;5.80;;;2.00;;
68910;SDS011;55953;51.650;-0.522;2023-04-26T08:02:38;5.50;;;1.80;;
68910;SDS011;55953;51.650;-0.522;2023-04-26T08:05:12;4.20;;;1.80;;
68910;SDS011;55953;51.650;-0.522;2023-04-26T08:07:41;4.40;;;1.70;;
68910;SDS011;55953;51.650;-0.522;2023-04-26T08:10:10;4.30;;;1.70;;
68910;SDS011;55953;51.650;-0.522;2023-04-26T08:12:38;5.60;;;2.30;;
68910;SDS011;55953;51.650;-0.522;2023-04-26T08:15:06;5.50;;;1.90;;
68910;SDS011;55953;51.650;-0.522;2023-04-26T08:17:34;6.30;;;2.00;;
68910;SDS011;55953;51.650;-0.522;2023-04-26T08:20:02;5.10;;;1.80;;
68910;SDS011;55953;51.650;-0.522;2023-04-26T08:22:33;4.80;;;2.00;;
68910;SDS011;55953;51.650;-0.522;2023-04-26T08:25:02;3.90;;;1.80;;
68910;SDS011;55953;51.650;-0.522;2023-04-26T08:27:31;22.50;;;3.10;;
68910;SDS011;55953;51.650;-0.522;2023-04-26T08:30:00;4.10;;;2.00;;
68910;SDS011;55953;51.650;-0.522;2023-04-26T08:32:28;6.10;;;2.00;;
68910;SDS011;55953;51.650;-0.522;2023-04-26T08:34:57;5.60;;;2.00;;
68910;SDS011;55953;51.650;-0.522;2023-04-26T08:37:25;4.40;;;1.70;;
68910;SDS011;55953;51.650;-0.522;2023-04-26T08:39:55;7.60;;;2.00;;
68910;SDS011;55953;51.650;-0.522;2023-04-26T08:42:26;11.70;;;2.00;;
68910;SDS011;55953;51.650;-0.522;2023-04-26T08:47:48;6.30;;;2.20;;
68910;SDS011;55953;51.650;-0.522;2023-04-26T08:50:22;7.50;;;2.30;;
68910;SDS011;55953;51.650;-0.522;2023-04-26T08:52:51;4.30;;;1.90;;
68910;SDS011;55953;51.650;-0.522;2023-04-26T08:55:19;8.40;;;2.20;;
68910;SDS011;55953;51.650;-0.522;2023-04-26T08:57:48;8.30;;;2.20;;
68910;SDS011;55953;51.650;-0.522;2023-04-26T09:00:17;5.00;;;1.80;;
68910;SDS011;55953;51.650;-0.522;2023-04-26T09:02:48;4.70;;;2.00;;
68910;SDS011;55953;51.650;-0.522;2023-04-26T09:05:19;4.60;;;1.90;;
68910;SDS011;55953;51.650;-0.522;2023-04-26T09:08:00;4.90;;;2.20;;
68910;SDS011;55953;51.650;-0.522;2023-04-26T09:10:30;6.10;;;2.10;;
68910;SDS011;55953;51.650;-0.522;2023-04-26T09:12:58;5.50;;;2.20;;
68910;SDS011;55953;51.650;-0.522;2023-04-26T09:15:26;8.50;;;2.70;;
68910;SDS011;55953;51.650;-0.522;2023-04-26T09:17:54;5.20;;;2.00;;
68910;SDS011;55953;51.650;-0.522;2023-04-26T09:20:27;5.90;;;1.90;;
68910;SDS011;55953;51.650;-0.522;2023-04-26T09:23:06;5.80;;;2.00;;
68910;SDS011;55953;51.650;-0.522;2023-04-26T09:25:36;6.50;;;2.10;;
68910;SDS011;55953;51.650;-0.522;2023-04-26T09:28:19;5.20;;;2.10;;
68910;SDS011;55953;51.650;-0.522;2023-04-26T09:30:49;4.90;;;2.30;;
68910;SDS011;55953;51.650;-0.522;2023-04-26T09:33:17;5.00;;;2.30;;
68910;SDS011;55953;51.650;-0.522;2023-04-26T09:35:46;4.90;;;2.10;;
68910;SDS011;55953;51.650;-0.522;2023-04-26T09:38:16;7.90;;;2.90;;
68910;SDS011;55953;51.650;-0.522;2023-04-26T09:40:47;7.30;;;3.90;;
68910;SDS011;55953;51.650;-0.522;2023-04-26T09:43:20;6.00;;;3.10;;
68910;SDS011;55953;51.650;-0.522;2023-04-26T09:48:26;3.50;;;2.20;;
68910;SDS011;55953;51.650;-0.522;2023-04-26T09:50:58;7.20;;;2.10;;
68910;SDS011;55953;51.650;-0.522;2023-04-26T09:53:39;7.30;;;2.30;;
68910;SDS011;55953;51.650;-0.522;2023-04-26T09:56:13;4.80;;;1.90;;
68910;SDS011;55953;51.650;-0.522;2023-04-26T10:01:15;7.50;;;2.50;;
68910;SDS011;55953;51.650;-0.522;2023-04-26T10:03:47;10.70;;;2.70;;
68910;SDS011;55953;51.650;-0.522;2023-04-26T10:06:15;5.90;;;1.90;;
68910;SDS011;55953;51.650;-0.522;2023-04-26T10:08:43;6.80;;;3.00;;
68910;SDS011;55953;51.650;-0.522;2023-04-26T10:11:12;5.80;;;2.80;;
68910;SDS011;55953;51.650;-0.522;2023-04-26T10:13:41;7.30;;;2.30;;
68910;SDS011;55953;51.650;-0.522;2023-04-26T10:16:09;7.20;;;2.90;;
68910;SDS011;55953;51.650;-0.522;2023-04-26T10:18:38;8.80;;;2.60;;
68910;SDS011;55953;51.650;-0.522;2023-04-26T10:21:13;11.20;;;2.30;;
68910;SDS011;55953;51.650;-0.522;2023-04-26T10:23:47;5.70;;;2.30;;
68910;SDS011;55953;51.650;-0.522;2023-04-26T10:29:24;7.00;;;2.60;;
68910;SDS011;55953;51.650;-0.522;2023-04-26T10:34:35;6.10;;;2.30;;
68910;SDS011;55953;51.650;-0.522;2023-04-26T10:37:14;6.10;;;2.60;;
68910;SDS011;55953;51.650;-0.522;2023-04-26T10:39:45;8.40;;;2.60;;
68910;SDS011;55953;51.650;-0.522;2023-04-26T10:42:26;6.00;;;2.50;;
68910;SDS011;55953;51.650;-0.522;2023-04-26T10:44:57;10.60;;;2.90;;
68910;SDS011;55953;51.650;-0.522;2023-04-26T10:47:31;5.90;;;2.50;;
68910;SDS011;55953;51.650;-0.522;2023-04-26T10:50:02;6.70;;;2.90;;
68910;SDS011;55953;51.650;-0.522;2023-04-26T10:53:04;8.80;;;2.90;;
68910;SDS011;55953;51.650;-0.522;2023-04-26T10:55:39;11.00;;;2.60;;
68910;SDS011;55953;51.650;-0.522;2023-04-26T10:58:26;5.80;;;2.50;;
68910;SDS011;55953;51.650;-0.522;2023-04-26T11:06:24;7.40;;;2.60;;
68910;SDS011;55953;51.650;-0.522;2023-04-26T11:08:55;6.80;;;2.50;;
68910;SDS011;55953;51.650;-0.522;2023-04-26T11:11:25;6.90;;;2.80;;
68910;SDS011;55953;51.650;-0.522;2023-04-26T11:13:54;7.80;;;2.70;;
68910;SDS011;55953;51.650;-0.522;2023-04-26T11:16:27;6.90;;;2.50;;
68910;SDS011;55953;51.650;-0.522;2023-04-26T11:18:55;9.30;;;3.10;;
68910;SDS011;55953;51.650;-0.522;2023-04-26T11:21:24;6.60;;;2.90;;
68910;SDS011;55953;51.650;-0.522;2023-04-26T11:23:54;7.30;;;2.80;;
68910;SDS011;55953;51.650;-0.522;2023-04-26T11:26:22;8.10;;;3.00;;
68910;SDS011;55953;51.650;-0.522;2023-04-26T11:28:53;7.60;;;3.00;;
68910;SDS011;55953;51.650;-0.522;2023-04-26T11:31:22;7.10;;;3.00;;
68910;SDS011;55953;51.650;-0.522;2023-04-26T11:33:50;7.70;;;3.10;;
68910;SDS011;55953;51.650;-0.522;2023-04-26T11:36:17;7.80;;;2.90;;
68910;SDS011;55953;51.650;-0.522;2023-04-26T11:38:46;7.20;;;2.70;;
68910;SDS011;55953;51.650;-0.522;2023-04-26T11:41:14;6.50;;;2.80;;
68910;SDS011;55953;51.650;-0.522;2023-04-26T11:43:42;10.30;;;3.20;;
68910;SDS011;55953;51.650;-0.522;2023-04-26T11:46:09;8.00;;;3.20;;
68910;SDS011;55953;51.650;-0.522;2023-04-26T11:48:39;6.40;;;2.90;;
68910;SDS011;55953;51.650;-0.522;2023-04-26T11:51:08;11.60;;;3.40;;
68910;SDS011;55953;51.650;-0.522;2023-04-26T11:53:38;7.40;;;3.00;;
68910;SDS011;55953;51.650;-0.522;2023-04-26T11:56:18;5.50;;;3.00;;
68910;SDS011;55953;51.650;-0.522;2023-04-26T11:58:51;7.90;;;3.40;;
68910;SDS011;55953;51.650;-0.522;2023-04-26T12:01:22;8.80;;;3.30;;
68910;SDS011;55953;51.650;-0.522;2023-04-26T12:03:56;8.20;;;3.10;;
68910;SDS011;55953;51.650;-0.522;2023-04-26T12:06:50;5.80;;;3.10;;
68910;SDS011;55953;51.650;-0.522;2023-04-26T12:09:28;8.00;;;3.70;;
68910;SDS011;55953;51.650;-0.522;2023-04-26T12:12:01;9.70;;;3.40;;
68910;SDS011;55953;51.650;-0.522;2023-04-26T12:14:36;6.30;;;2.90;;
68910;SDS011;55953;51.650;-0.522;2023-04-26T12:17:05;7.40;;;3.40;;
68910;SDS011;55953;51.650;-0.522;2023-04-26T12:19:38;9.30;;;4.00;;
68910;SDS011;55953;51.650;-0.522;2023-04-26T12:22:07;38.10;;;6.70;;
68910;SDS011;55953;51.650;-0.522;2023-04-26T12:24:35;8.40;;;4.00;;
68910;SDS011;55953;51.650;-0.522;2023-04-26T12:27:05;9.80;;;3.50;;
68910;SDS011;55953;51.650;-0.522;2023-04-26T12:29:34;6.30;;;3.20;;
68910;SDS011;55953;51.650;-0.522;2023-04-26T12:32:02;6.30;;;3.50;;
68910;SDS011;55953;51.650;-0.522;2023-04-26T12:34:31;5.60;;;3.30;;
68910;SDS011;55953;51.650;-0.522;2023-04-26T12:36:58;7.00;;;3.40;;
68910;SDS011;55953;51.650;-0.522;2023-04-26T12:39:26;7.30;;;3.20;;
68910;SDS011;55953;51.650;-0.522;2023-04-26T12:41:54;6.20;;;3.00;;
68910;SDS011;55953;51.650;-0.522;2023-04-26T12:44:22;8.50;;;2.90;;
68910;SDS011;55953;51.650;-0.522;2023-04-26T12:46:50;7.30;;;3.00;;
68910;SDS011;55953;51.650;-0.522;2023-04-26T12:49:18;9.40;;;3.50;;
68910;SDS011;55953;51.650;-0.522;2023-04-26T12:51:45;9.00;;;3.50;;
68910;SDS011;55953;51.650;-0.522;2023-04-26T12:54:13;6.60;;;2.80;;
68910;SDS011;55953;51.650;-0.522;2023-04-26T12:56:41;7.70;;;3.00;;
68910;SDS011;55953;51.650;-0.522;2023-04-26T12:59:11;8.50;;;3.10;;
68910;SDS011;55953;51.650;-0.522;2023-04-26T13:01:38;9.00;;;3.20;;
68910;SDS011;55953;51.650;-0.522;2023-04-26T13:04:07;5.80;;;2.70;;
68910;SDS011;55953;51.650;-0.522;2023-04-26T13:06:36;6.90;;;3.00;;
68910;SDS011;55953;51.650;-0.522;2023-04-26T13:09:04;8.20;;;3.30;;
68910;SDS011;55953;51.650;-0.522;2023-04-26T13:11:34;7.60;;;3.00;;
68910;SDS011;55953;51.650;-0.522;2023-04-26T13:14:02;7.10;;;2.80;;
68910;SDS011;55953;51.650;-0.522;2023-04-26T13:16:33;6.50;;;3.00;;
68910;SDS011;55953;51.650;-0.522;2023-04-26T13:19:02;7.30;;;3.50;;
68910;SDS011;55953;51.650;-0.522;2023-04-26T13:21:30;8.00;;;3.20;;
68910;SDS011;55953;51.650;-0.522;2023-04-26T13:23:57;9.90;;;3.10;;
68910;SDS011;55953;51.650;-0.522;2023-04-26T13:26:25;8.90;;;3.20;;
68910;SDS011;55953;51.650;-0.522;2023-04-26T13:28:54;9.80;;;3.20;;
68910;SDS011;55953;51.650;-0.522;2023-04-26T13:31:22;8.70;;;3.30;;
68910;SDS011;55953;51.650;-0.522;2023-04-26T13:33:50;6.90;;;2.90;;
68910;SDS011;55953;51.650;-0.522;2023-04-26T13:36:18;6.60;;;3.40;;
68910;SDS011;55953;51.650;-0.522;2023-04-26T13:38:46;7.20;;;3.10;;
68910;SDS011;55953;51.650;-0.522;2023-04-26T13:41:14;7.90;;;3.30;;
68910;SDS011;55953;51.650;-0.522;2023-04-26T13:43:42;11.60;;;3.50;;
68910;SDS011;55953;51.650;-0.522;2023-04-26T13:46:10;7.20;;;3.00;;
68910;SDS011;55953;51.650;-0.522;2023-04-26T13:48:37;6.00;;;3.30;;
68910;SDS011;55953;51.650;-0.522;2023-04-26T13:51:05;6.50;;;3.30;;
68910;SDS011;55953;51.650;-0.522;2023-04-26T13:53:33;7.20;;;3.20;;
68910;SDS011;55953;51.650;-0.522;2023-04-26T13:56:01;7.10;;;3.50;;
68910;SDS011;55953;51.650;-0.522;2023-04-26T13:58:29;15.80;;;3.60;;
68910;SDS011;55953;51.650;-0.522;2023-04-26T14:00:57;8.70;;;3.90;;
68910;SDS011;55953;51.650;-0.522;2023-04-26T14:03:25;7.30;;;3.30;;
68910;SDS011;55953;51.650;-0.522;2023-04-26T14:05:54;5.20;;;2.90;;
68910;SDS011;55953;51.650;-0.522;2023-04-26T14:08:22;6.30;;;3.30;;
68910;SDS011;55953;51.650;-0.522;2023-04-26T14:10:51;8.20;;;3.40;;
68910;SDS011;55953;51.650;-0.522;2023-04-26T14:13:19;6.20;;;3.30;;
68910;SDS011;55953;51.650;-0.522;2023-04-26T14:15:48;10.00;;;3.40;;
68910;SDS011;55953;51.650;-0.522;2023-04-26T14:18:16;7.60;;;3.50;;
68910;SDS011;55953;51.650;-0.522;2023-04-26T14:20:44;6.60;;;3.30;;
68910;SDS011;55953;51.650;-0.522;2023-04-26T14:23:13;7.40;;;3.40;;
68910;SDS011;55953;51.650;-0.522;2023-04-26T14:25:41;7.50;;;3.40;;
68910;SDS011;55953;51.650;-0.522;2023-04-26T14:28:09;6.30;;;3.30;;
68910;SDS011;55953;51.650;-0.522;2023-04-26T14:30:37;6.10;;;3.00;;
68910;SDS011;55953;51.650;-0.522;2023-04-26T14:33:05;7.70;;;3.30;;
68910;SDS011;55953;51.650;-0.522;2023-04-26T14:35:33;7.40;;;3.40;;
68910;SDS011;55953;51.650;-0.522;2023-04-26T14:38:01;6.20;;;3.10;;
68910;SDS011;55953;51.650;-0.522;2023-04-26T14:40:28;7.80;;;4.00;;
68910;SDS011;55953;51.650;-0.522;2023-04-26T14:42:56;9.10;;;3.40;;
68910;SDS011;55953;51.650;-0.522;2023-04-26T14:45:24;9.20;;;3.40;;
68910;SDS011;55953;51.650;-0.522;2023-04-26T14:48:10;9.70;;;3.40;;
68910;SDS011;55953;51.650;-0.522;2023-04-26T14:50:39;6.20;;;3.60;;
68910;SDS011;55953;51.650;-0.522;2023-04-26T14:53:07;8.60;;;3.40;;
68910;SDS011;55953;51.650;-0.522;2023-04-26T14:55:36;7.70;;;4.00;;
68910;SDS011;55953;51.650;-0.522;2023-04-26T14:58:04;4.90;;;3.30;;
68910;SDS011;55953;51.650;-0.522;2023-04-26T15:00:32;7.30;;;3.50;;
68910;SDS011;55953;51.650;-0.522;2023-04-26T15:02:59;9.90;;;3.60;;
68910;SDS011;55953;51.650;-0.522;2023-04-26T15:05:28;7.80;;;3.30;;